createdAt,value
2023-05-21T00:01:11.680Z,37.40
2023-05-21T00:13:12.157Z,35.70
2023-05-21T00:25:12.613Z,34.50
2023-05-21T00:37:13.070Z,37.00
2023-05-21T00:49:13.498Z,39.10
2023-05-21T01:01:14.208Z,34.40
2023-05-21T01:13:14.422Z,37.30
2023-05-21T01:25:14.880Z,38.40
2023-05-21T01:37:15.311Z,38.40
2023-05-21T01:49:15.765Z,40.00
2023-05-21T02:01:16.286Z,36.80
2023-05-21T02:13:16.689Z,34.80
2023-05-21T02:25:17.133Z,35.00
2023-05-21T02:37:17.624Z,35.70
2023-05-21T02:49:18.054Z,37.10
2023-05-21T03:01:18.505Z,37.60
2023-05-21T03:13:18.971Z,32.50
2023-05-21T03:25:19.413Z,40.70
2023-05-21T03:37:19.889Z,40.00
2023-05-21T03:49:20.320Z,37.20
2023-05-21T04:01:20.788Z,38.20
2023-05-21T04:13:21.225Z,37.40
2023-05-21T04:25:21.678Z,39.50
2023-05-21T04:37:22.140Z,43.40
2023-05-21T04:49:22.589Z,40.80
2023-05-21T05:01:23.068Z,39.80
2023-05-21T05:13:23.533Z,37.60
2023-05-21T05:25:23.962Z,25.60
2023-05-21T05:37:24.391Z,24.50
2023-05-21T05:49:24.852Z,28.10
2023-05-21T06:01:25.316Z,25.40
2023-05-21T06:13:25.776Z,23.20
2023-05-21T06:25:26.197Z,21.50
2023-05-21T06:37:26.853Z,25.30
2023-05-21T06:49:27.153Z,20.90
2023-05-21T07:01:27.650Z,18.00
2023-05-21T07:13:28.070Z,18.20
2023-05-21T07:25:29.425Z,18.10
2023-05-21T07:37:28.982Z,16.60
2023-05-21T07:49:29.419Z,15.80
2023-05-21T08:01:29.882Z,13.90
2023-05-21T08:13:30.324Z,12.60
2023-05-21T08:25:30.731Z,12.40
2023-05-21T08:37:31.229Z,13.10
2023-05-21T08:49:31.703Z,12.40
2023-05-21T09:01:32.218Z,12.60
2023-05-21T09:13:32.618Z,12.20
2023-05-21T09:25:33.147Z,9.70
2023-05-21T09:37:33.501Z,10.20
2023-05-21T09:49:33.940Z,10.90
2023-05-21T10:01:34.453Z,9.40
2023-05-21T10:13:34.892Z,7.10
2023-05-21T10:25:35.317Z,8.40
2023-05-21T10:37:35.780Z,8.70
2023-05-21T10:49:36.253Z,9.90
2023-05-21T11:01:36.761Z,7.80
2023-05-21T11:13:37.152Z,7.60
2023-05-21T11:25:37.596Z,8.00
2023-05-21T11:37:38.104Z,9.70
2023-05-21T11:49:38.503Z,9.60
2023-05-21T12:01:38.970Z,8.70
2023-05-21T12:13:39.429Z,9.90
2023-05-21T12:25:39.912Z,8.80
2023-05-21T12:37:40.358Z,10.10
2023-05-21T12:49:40.816Z,9.70
2023-05-21T13:01:41.278Z,8.80
2023-05-21T13:13:41.731Z,9.70
2023-05-21T13:25:42.191Z,9.80
2023-05-21T13:37:42.644Z,10.00
2023-05-21T13:49:43.088Z,8.70
2023-05-21T14:01:43.626Z,9.20
2023-05-21T14:13:44.029Z,7.70
2023-05-21T14:25:44.509Z,10.20
2023-05-21T14:37:44.929Z,8.00
2023-05-21T14:49:45.413Z,8.30
2023-05-21T15:01:45.855Z,8.80
2023-05-21T15:13:46.277Z,8.60
2023-05-21T15:25:46.750Z,9.70
2023-05-21T15:37:47.226Z,7.30
2023-05-21T15:49:47.675Z,8.10
2023-05-21T16:01:48.144Z,8.60
2023-05-21T16:13:48.612Z,6.80
2023-05-21T16:25:49.070Z,8.50
2023-05-21T16:37:49.500Z,9.20
2023-05-21T16:49:49.920Z,9.40
2023-05-21T17:01:50.450Z,6.70
2023-05-21T17:13:50.888Z,6.70
2023-05-21T17:25:51.320Z,8.30
2023-05-21T17:37:51.781Z,7.70
2023-05-21T17:49:52.224Z,9.30
2023-05-21T18:01:52.728Z,11.80
2023-05-21T18:13:53.125Z,10.30
2023-05-21T18:25:53.596Z,17.20
2023-05-21T18:37:54.052Z,13.30
2023-05-21T18:49:54.507Z,13.30
2023-05-21T19:01:55.034Z,16.80
2023-05-21T19:13:55.433Z,20.80
2023-05-21T19:25:55.871Z,18.60
2023-05-21T19:37:56.355Z,19.90
2023-05-21T19:49:56.820Z,18.40
2023-05-21T20:01:57.244Z,19.20
2023-05-21T20:13:57.698Z,18.70
2023-05-21T20:25:58.207Z,23.60
2023-05-21T20:37:58.615Z,23.30
2023-05-21T20:49:59.067Z,22.10
2023-05-21T21:01:59.632Z,22.20
2023-05-21T21:14:00.006Z,23.60
2023-05-21T21:26:00.445Z,22.30
2023-05-21T21:38:00.889Z,25.80
2023-05-21T21:50:01.304Z,23.10
2023-05-21T22:02:01.812Z,25.60
2023-05-21T22:14:02.233Z,27.00
2023-05-21T22:26:02.660Z,25.10
2023-05-21T22:38:03.132Z,28.60
2023-05-21T22:50:03.674Z,26.50
2023-05-21T23:02:04.131Z,27.30
2023-05-21T23:14:04.528Z,28.20
2023-05-21T23:26:04.995Z,27.10
2023-05-21T23:38:05.456Z,25.60
2023-05-21T23:50:05.878Z,28.60
